To NAV CANADA Home Page Login to a new session Search on AWWS site Feedback and Comments Disclaimer Vers la page française équivalente Tips FAQ What's new on the site To the Forecasts and Observations / NOTAM section To "File a Flight Plan" website Publications and other links Update of the User's profile FIC Telephone Numbers My Weather Data Folder Route Weather Data Regional Weather Data Local Weather Data To the Forecasts and Observations / NOTAM section
Request Generated 03/28/2017 at 02:19:54 UTC . Weather information available at that time is displayed.

METAR/TAF

KUUJJUAQ/QC    

METAR CYVP 280200Z 01004KT 15SM SCT160 BKN240 M17/M20 A3035 RMK
AC4CI2 SLP284=
METAR CYVP 280100Z 02005KT 15SM BKN170 BKN250 M15/M19 A3035 RMK
AC5CI2 SLP285=
METAR CYVP 280000Z 04007KT 15SM SCT170 BKN260 M14/M19 A3036 RMK
AC4CI3 SLP288=

TAF CYVP 272338Z 2800/2812 04007KT P6SM SCT150 BKN240
FM281000 VRB03KT P6SM BKN120
RMK NXT FCST BY 280600Z=
Your time UTC time
Weather data provided by Environment Canada and NAV CANADA